Time;durP1;ratioP1;P1;durP2;ratioP2;P2;SDS_P1;SDS_P2;PMS_P1;PMS_P2;Temp;Humidity;BMP_temperature;BMP_pressure;BME280_temperature;BME280_humidity;BME280_pressure;Samples;Min_cycle;Max_cycle;Signal;HPM_P1;HPM_P2
2022/10/27 00:01:46;;;;;;;;;;;;;;;15.04;89.12;100774.34;5033945;28;20052;-76
2022/10/27 00:04:11;;;;;;;3.75;1.40;;;;;;;15.04;89.03;100770.81;5033675;28;19913;-76
2022/10/27 00:06:37;;;;;;;;;;;;;;;14.98;89.45;100775.75;5033860;28;20552;-77
2022/10/27 00:09:03;;;;;;;3.27;1.00;;;;;;;14.99;89.43;100780.09;5033474;28;19917;-77
2022/10/27 00:11:28;;;;;;;;;;;;;;;15.02;89.54;100779.41;5033791;28;20060;-77
2022/10/27 00:13:54;;;;;;;3.60;1.08;;;;;;;15.01;89.46;100780.53;5015725;28;20378;-76
2022/10/27 00:16:19;;;;;;;;;;;;;;;15.00;89.31;100781.69;5033682;28;20035;-76
2022/10/27 00:18:45;;;;;;;4.70;1.30;;;;;;;15.05;89.21;100780.63;5032631;28;19909;-76
2022/10/27 00:21:19;;;;;;;3.90;1.05;;;;;;;14.97;89.42;100779.66;5033436;28;20040;-76
2022/10/27 00:23:47;;;;;;;3.55;1.08;;;;;;;14.86;90.12;100780.47;5033099;28;20041;-77
2022/10/27 00:26:14;;;;;;;2.85;1.30;;;;;;;15.09;89.46;100776.03;5032712;28;20112;-77
2022/10/27 00:28:40;;;;;;;5.72;1.38;;;;;;;14.96;89.62;100780.00;5033331;28;20052;-77
2022/10/27 00:31:15;;;;;;;;;;;;;;;14.91;89.78;100780.22;5033635;28;20392;-76
2022/10/27 00:33:41;;;;;;;5.00;1.10;;;;;;;14.72;90.90;100783.59;5033146;28;19909;-76
2022/10/27 00:36:10;;;;;;;5.80;1.33;;;;;;;14.69;91.06;100779.59;5032757;28;20044;-77
2022/10/27 00:38:35;;;;;;;3.50;1.10;;;;;;;14.64;91.52;100781.78;5015876;28;20025;-76
2022/10/27 00:41:01;;;;;;;5.43;1.35;;;;;;;14.95;90.18;100781.16;5032771;28;20168;-76
2022/10/27 00:43:33;;;;;;;3.95;1.30;;;;;;;14.82;90.52;100787.81;5032988;28;20466;-76
2022/10/27 00:46:25;;;;;;;3.83;1.23;;;;;;;14.62;91.71;100790.38;5032960;28;20045;-77
2022/10/27 00:48:59;;;;;;;2.58;0.80;;;;;;;14.57;91.56;100785.09;5032739;28;20018;-76
2022/10/27 00:51:25;;;;;;;4.03;1.00;;;;;;;14.67;91.33;100792.06;5032983;28;20075;-77
2022/10/27 00:53:51;;;;;;;2.83;0.80;;;;;;;14.65;91.31;100788.88;5015189;28;20021;-76
2022/10/27 00:56:18;;;;;;;3.63;1.20;;;;;;;14.57;91.79;100787.84;5032505;28;20030;-77
2022/10/27 00:58:44;;;;;;;3.20;1.15;;;;;;;14.54;92.10;100787.75;5032777;28;20167;-76
2022/10/27 01:01:10;;;;;;;3.67;1.05;;;;;;;14.52;92.48;100785.34;5015050;28;20398;-76
2022/10/27 01:03:36;;;;;;;6.97;1.95;;;;;;;14.59;91.90;100798.44;5032622;28;20033;-76
2022/10/27 01:06:02;;;;;;;4.15;1.50;;;;;;;14.54;92.22;100798.69;5032247;28;20029;-77
2022/10/27 01:08:28;;;;;;;4.65;1.25;;;;;;;14.67;91.40;100803.81;5032428;28;20029;-76
2022/10/27 01:10:53;;;;;;;;;;;;;;;14.59;91.70;100801.19;5032730;28;20091;-76
2022/10/27 01:13:19;;;;;;;2.97;1.00;;;;;;;14.57;91.80;100803.47;5014834;28;19962;-77
2022/10/27 01:16:07;;;;;;;2.67;0.90;;;;;;;14.56;92.07;100808.16;5014944;28;20095;-77
2022/10/27 01:18:55;;;;;;;2.70;0.90;;;;;;;14.51;92.61;100804.88;5032691;28;20032;-77
2022/10/27 01:22:22;;;;;;;3.10;1.20;;;;;;;14.50;92.42;100815.03;5032419;28;20426;-76
2022/10/27 01:25:08;;;;;;;3.15;1.40;;;;;;;14.52;92.31;100804.53;4969326;28;20041;-78
2022/10/27 01:28:17;;;;;;;4.37;1.00;;;;;;;14.53;92.00;100806.13;5032518;28;20031;-78
2022/10/27 01:31:04;;;;;;;5.68;1.00;;;;;;;14.52;92.14;100809.22;5034420;28;20026;-76
2022/10/27 01:33:44;;;;;;;4.65;1.10;;;;;;;14.71;91.24;100798.44;5036749;28;20126;-76
2022/10/27 01:36:18;;;;;;;2.72;1.00;;;;;;;14.88;90.28;100800.13;5036244;28;20033;-76
2022/10/27 01:38:56;;;;;;;2.80;0.80;;;;;;;14.70;90.98;100810.56;5036070;28;20034;-76
2022/10/27 01:41:29;;;;;;;2.22;0.85;;;;;;;14.80;90.92;100806.56;5035987;28;20048;-77
2022/10/27 01:44:01;;;;;;;4.13;0.95;;;;;;;14.66;91.00;100807.72;5036116;28;20033;-76
2022/10/27 01:46:27;;;;;;;2.40;0.93;;;;;;;14.58;91.72;100807.81;5035947;28;20033;-76
2022/10/27 01:48:53;;;;;;;3.45;0.95;;;;;;;14.67;91.42;100803.81;5036327;28;20041;-76
2022/10/27 01:51:18;;;;;;;5.93;1.02;;;;;;;14.64;91.36;100804.53;5035875;28;20071;-76
2022/10/27 01:53:47;;;;;;;5.57;0.93;;;;;;;14.57;91.31;100804.28;5018239;28;20414;-76
2022/10/27 01:56:43;;;;;;;3.90;0.90;;;;;;;14.57;91.52;100809.75;5035709;28;20041;-77
2022/10/27 01:59:38;;;;;;;2.78;0.82;;;;;;;14.54;91.64;100807.72;5035839;28;20032;-77
2022/10/27 02:02:28;;;;;;;3.80;1.02;;;;;;;14.55;91.61;100811.25;5035846;28;20022;-77
2022/10/27 02:05:05;;;;;;;4.45;0.90;;;;;;;14.55;91.57;100809.31;5035727;28;20065;-77
2022/10/27 02:07:53;;;;;;;4.25;0.95;;;;;;;14.55;91.65;100801.09;5035980;28;20025;-77
2022/10/27 02:10:38;;;;;;;4.50;1.02;;;;;;;14.56;91.39;100807.38;5020329;28;20057;-76
2022/10/27 02:13:04;;;;;;;2.50;0.98;;;;;;;14.58;91.08;100803.13;5017781;28;20029;-77
2022/10/27 02:15:43;;;;;;;3.85;0.95;;;;;;;14.59;91.12;100802.00;5017858;28;20033;-77
2022/10/27 02:18:14;;;;;;;2.88;1.00;;;;;;;14.59;90.82;100804.72;5035762;28;20034;-76
2022/10/27 02:20:44;;;;;;;2.53;0.90;;;;;;;14.60;90.96;100809.06;5035579;28;20036;-76
2022/10/27 02:23:14;;;;;;;5.25;0.70;;;;;;;14.56;90.95;100808.16;5035386;28;20032;-76
2022/10/27 02:25:48;;;;;;;3.35;1.25;;;;;;;14.54;91.17;100813.19;5017674;28;20486;-77
2022/10/27 02:28:15;;;;;;;4.15;1.08;;;;;;;14.61;90.70;100810.69;5017798;28;20037;-76
2022/10/27 02:30:41;;;;;;;4.20;1.00;;;;;;;14.57;91.20;100806.22;5035264;28;20033;-76
2022/10/27 02:33:09;;;;;;;;;;;;;;;14.52;91.10;100812.75;5017890;28;20032;-76
2022/10/27 02:35:35;;;;;;;3.60;1.08;;;;;;;14.53;90.97;100805.31;5035310;28;19953;-76
2022/10/27 02:38:00;;;;;;;2.15;0.90;;;;;;;14.49;91.05;100801.69;5035402;28;20064;-76
2022/10/27 02:40:25;;;;;;;5.47;1.42;;;;;;;14.46;90.94;100800.44;5016928;28;20506;-76
2022/10/27 02:42:51;;;;;;;;;;;;;;;14.46;91.19;100802.38;5035129;28;20029;-76
2022/10/27 02:45:16;;;;;;;2.80;0.67;;;;;;;14.49;91.13;100807.97;5034980;28;19913;-76
2022/10/27 02:47:41;;;;;;;;;;;;;;;14.54;90.27;100804.97;5035440;28;20091;-76
2022/10/27 02:50:07;;;;;;;3.07;1.23;;;;;;;14.47;90.63;100807.50;5034913;28;19999;-76
2022/10/27 02:52:32;;;;;;;3.22;0.70;;;;;;;14.80;89.76;100809.28;5034667;28;20299;-76
2022/10/27 02:54:58;;;;;;;;;;;;;;;14.63;89.74;100807.59;5035640;28;20441;-76
2022/10/27 02:57:23;;;;;;;3.73;1.67;;;;;;;14.75;89.19;100802.88;5017136;28;20408;-76
2022/10/27 02:59:48;;;;;;;;;;;;;;;14.50;89.93;100808.75;5017396;28;20025;-76
2022/10/27 03:02:14;;;;;;;2.50;0.88;;;;;;;14.61;88.28;100802.47;5034886;28;19909;-76
2022/10/27 03:04:39;;;;;;;;;;;;;;;14.25;91.02;100799.72;5034644;28;20402;-76
2022/10/27 03:07:04;;;;;;;1.47;0.70;;;;;;;14.08;91.85;100795.25;5034872;28;19917;-76
2022/10/27 03:09:29;;;;;;;;;;;;;;;14.47;89.39;100802.03;5035120;28;20490;-76
2022/10/27 03:11:56;;;;;;;2.73;1.00;;;;;;;14.48;89.90;100806.38;5034559;28;19959;-76
2022/10/27 03:14:21;;;;;;;2.17;0.77;;;;;;;14.34;90.03;100803.94;5016634;28;20280;-76
2022/10/27 03:16:47;;;;;;;3.25;1.00;;;;;;;14.47;89.58;100804.78;5016734;28;20036;-76
2022/10/27 03:19:12;;;;;;;;;;;;;;;14.25;90.20;100802.44;5034562;28;20033;-76
2022/10/27 03:21:37;;;;;;;1.80;0.57;;;;;;;14.39;89.37;100791.94;5034422;28;19909;-76
2022/10/27 03:24:03;;;;;;;4.00;1.10;;;;;;;14.59;88.72;100790.22;5033996;28;20287;-76
2022/10/27 03:26:28;;;;;;;;;;;;;;;14.60;88.48;100780.88;5034635;28;20075;-77
2022/10/27 03:28:53;;;;;;;1.43;0.70;;;;;;;14.53;88.62;100781.47;5034199;28;19920;-76
2022/10/27 03:31:19;;;;;;;2.03;1.00;;;;;;;14.37;89.35;100788.75;5033754;28;20275;-76
2022/10/27 03:33:44;;;;;;;5.20;1.27;;;;;;;14.36;89.91;100789.91;5034478;28;20248;-77
2022/10/27 03:36:10;;;;;;;2.37;0.83;;;;;;;14.25;90.20;100783.28;5034390;28;20276;-76
2022/10/27 03:38:36;;;;;;;4.03;1.00;;;;;;;14.21;90.62;100785.91;5034044;28;20347;-76
2022/10/27 03:41:02;;;;;;;;;;;;;;;14.15;90.85;100795.50;5034412;28;20045;-77
2022/10/27 03:43:29;;;;;;;2.25;0.85;;;;;;;14.09;91.07;100789.44;5033765;28;19920;-76
2022/10/27 03:45:54;;;;;;;3.47;1.45;;;;;;;14.01;91.46;100790.34;5033770;28;20052;-76
2022/10/27 03:48:19;;;;;;;5.57;1.40;;;;;;;13.92;91.94;100789.66;5033872;28;20037;-76
2022/10/27 03:50:46;;;;;;;;;;;;;;;13.91;92.09;100787.25;5034424;28;20112;-77
2022/10/27 03:53:12;;;;;;;2.88;0.90;;;;;;;13.86;92.26;100785.53;5032782;28;19909;-76
2022/10/27 03:55:41;;;;;;;;;;;;;;;13.83;92.48;100778.81;5034031;28;20478;-76
2022/10/27 03:58:11;;;;;;;4.18;1.23;;;;;;;13.92;92.16;100780.63;4999627;28;19913;-78
2022/10/27 04:00:36;;;;;;;4.00;1.25;;;;;;;13.87;92.68;100783.59;5016075;28;20035;-77
2022/10/27 04:03:02;;;;;;;3.70;1.00;;;;;;;13.83;92.70;100786.22;5033420;28;20029;-77
2022/10/27 04:05:27;;;;;;;4.97;1.30;;;;;;;13.76;93.02;100784.03;5033667;28;20302;-78
2022/10/27 04:07:54;;;;;;;3.15;1.08;;;;;;;13.72;92.98;100785.06;5033245;28;20030;-77
2022/10/27 04:10:19;;;;;;;5.28;0.90;;;;;;;13.71;92.88;100783.47;5033612;28;20025;-77
2022/10/27 04:12:53;;;;;;;3.55;0.80;;;;;;;13.74;92.78;100782.78;5033347;28;20051;-77
2022/10/27 04:15:19;;;;;;;4.90;1.48;;;;;;;13.73;92.89;100781.19;5033227;28;20057;-77
2022/10/27 04:17:44;;;;;;;;;;;;;;;13.67;93.02;100782.56;5033712;28;20032;-77
2022/10/27 04:20:10;;;;;;;6.18;1.20;;;;;;;13.63;93.46;100785.19;5033365;28;19921;-77
2022/10/27 04:22:35;;;;;;;3.67;0.95;;;;;;;13.57;93.65;100782.97;5033453;28;20025;-77
2022/10/27 04:25:01;;;;;;;5.68;1.70;;;;;;;13.52;93.85;100782.06;5033240;28;20026;-76
2022/10/27 04:27:26;;;;;;;;;;;;;;;13.49;94.23;100776.47;5015622;28;20025;-77
2022/10/27 04:29:51;;;;;;;5.38;1.50;;;;;;;13.50;94.12;100781.59;5033161;28;19909;-77
2022/10/27 04:32:20;;;;;;;1.67;0.90;;;;;;;13.47;94.15;100790.50;5033389;28;20076;-80
2022/10/27 04:34:46;;;;;;;3.25;1.10;;;;;;;13.45;93.80;100781.81;5032624;28;20628;-79
2022/10/27 04:37:12;;;;;;;3.33;1.10;;;;;;;13.47;93.81;100774.06;5015177;28;20501;-78
2022/10/27 04:39:37;;;;;;;2.35;0.95;;;;;;;13.50;93.47;100778.88;5033051;28;20034;-77
2022/10/27 04:42:04;;;;;;;1.85;0.80;;;;;;;13.52;93.38;100781.25;5032492;28;20155;-77
2022/10/27 04:44:29;;;;;;;3.17;1.20;;;;;;;13.49;93.50;100777.28;5015290;28;20064;-76
2022/10/27 04:46:56;;;;;;;2.83;1.20;;;;;;;13.48;93.48;100767.47;5032377;28;20482;-79
2022/10/27 04:49:21;;;;;;;3.90;0.88;;;;;;;13.50;93.02;100767.13;5014915;28;20343;-78
2022/10/27 04:51:46;;;;;;;2.60;0.80;;;;;;;13.47;93.43;100773.28;5032659;28;20025;-78
2022/10/27 04:54:12;;;;;;;6.87;2.27;;;;;;;13.47;93.46;100774.06;5032559;28;20274;-76
2022/10/27 04:56:37;;;;;;;3.05;1.33;;;;;;;13.45;93.41;100781.03;5032497;28;20274;-77
2022/10/27 04:59:02;;;;;;;2.80;0.90;;;;;;;13.47;93.57;100773.28;5032579;28;20066;-77
2022/10/27 05:01:28;;;;;;;3.33;1.00;;;;;;;13.48;93.47;100763.94;5032602;28;20298;-77
2022/10/27 05:03:53;;;;;;;2.50;0.90;;;;;;;13.48;93.42;100767.47;5032006;28;20371;-76
2022/10/27 05:06:18;;;;;;;4.07;1.20;;;;;;;13.50;93.22;100762.44;5014589;28;20276;-77
2022/10/27 05:08:44;;;;;;;4.80;2.28;;;;;;;13.42;93.46;100766.06;5014619;28;20552;-77
2022/10/27 05:11:10;;;;;;;3.13;1.05;;;;;;;13.33;93.79;100759.91;5032320;28;20030;-76
2022/10/27 05:13:35;;;;;;;3.85;0.90;;;;;;;13.27;93.85;100758.53;5031508;28;20033;-77
2022/10/27 05:16:01;;;;;;;;;;;;;;;13.23;94.17;100758.38;5015033;28;20498;-78
2022/10/27 05:18:27;;;;;;;3.53;1.13;;;;;;;13.23;94.50;100763.84;5032578;28;20042;-77
2022/10/27 05:20:52;;;;;;;;;;;;;;;13.21;94.64;100765.31;5032940;28;20057;-77
2022/10/27 05:23:18;;;;;;;5.28;1.10;;;;;;;13.22;94.44;100766.91;5032435;28;19948;-77
2022/10/27 05:25:43;;;;;;;;;;;;;;;13.16;94.59;100768.25;5032005;28;20116;-77
2022/10/27 05:28:10;;;;;;;4.63;1.03;;;;;;;13.10;95.04;100766.84;5032269;28;19909;-77
2022/10/27 05:30:36;;;;;;;2.95;1.50;;;;;;;13.11;94.75;100763.00;5032542;28;20318;-77
2022/10/27 05:33:01;;;;;;;;;;;;;;;13.14;94.68;100765.84;5032976;28;20025;-78
2022/10/27 05:35:27;;;;;;;3.90;1.48;;;;;;;13.10;94.68;100770.41;5032230;28;20278;-76
2022/10/27 05:37:52;;;;;;;2.60;0.97;;;;;;;13.11;94.83;100768.47;5032009;28;20091;-77
2022/10/27 05:40:18;;;;;;;4.82;1.20;;;;;;;13.11;94.78;100766.53;5031787;28;20296;-76
2022/10/27 05:42:51;;;;;;;5.07;1.80;;;;;;;13.11;94.35;100765.72;5031605;28;20026;-77
2022/10/27 05:45:17;;;;;;;3.30;1.25;;;;;;;13.05;94.60;100761.56;5032005;28;20033;-76
2022/10/27 05:47:42;;;;;;;4.20;1.48;;;;;;;12.99;94.82;100768.41;5031985;28;20033;-77
2022/10/27 05:50:08;;;;;;;5.33;1.50;;;;;;;12.92;95.04;100760.72;5031723;28;20034;-76
2022/10/27 05:52:34;;;;;;;;;;;;;;;12.89;95.10;100766.84;5032195;28;20486;-77
2022/10/27 05:54:59;;;;;;;4.55;1.45;;;;;;;12.87;95.11;100759.00;5031923;28;19909;-77
2022/10/27 05:57:25;;;;;;;5.90;1.70;;;;;;;12.89;95.46;100764.13;5031717;28;20080;-77
2022/10/27 05:59:50;;;;;;;6.07;1.40;;;;;;;12.95;95.00;100769.06;5031722;28;20355;-77
2022/10/27 06:02:15;;;;;;;3.37;1.27;;;;;;;12.98;94.41;100764.06;5031646;28;20264;-78
2022/10/27 06:04:41;;;;;;;;;;;;;;;13.00;94.61;100764.53;5032483;28;20112;-77
2022/10/27 06:07:06;;;;;;;2.67;1.08;;;;;;;13.04;94.01;100770.91;5014128;28;20012;-76
2022/10/27 06:09:31;;;;;;;3.13;1.08;;;;;;;13.06;94.40;100769.44;5031750;28;20017;-77
2022/10/27 06:11:57;;;;;;;4.87;1.60;;;;;;;13.10;93.72;100767.66;5014077;28;20021;-77
2022/10/27 06:14:22;;;;;;;3.53;1.10;;;;;;;13.16;93.93;100766.31;5032022;28;20264;-77
2022/10/27 06:16:47;;;;;;;4.57;1.30;;;;;;;13.14;93.53;100770.50;5033036;28;20628;-77
2022/10/27 06:19:13;;;;;;;2.73;1.10;;;;;;;13.09;93.50;100779.69;5035065;28;20267;-77
2022/10/27 06:21:38;;;;;;;;;;;;;;;13.06;93.10;100774.91;5035554;28;20029;-77
2022/10/27 06:24:04;;;;;;;6.30;1.83;;;;;;;13.14;92.99;100770.50;5035474;28;19913;-77
2022/10/27 06:26:29;;;;;;;;;;;;;;;13.20;92.50;100780.94;5034987;28;20029;-77
2022/10/27 06:28:54;;;;;;;5.00;0.80;;;;;;;13.30;92.04;100777.00;5035208;28;19916;-76
2022/10/27 06:31:20;;;;;;;2.53;0.90;;;;;;;13.35;91.76;100776.78;5017254;28;20340;-76
2022/10/27 06:33:45;;;;;;;3.57;1.03;;;;;;;13.38;91.49;100776.09;5034967;28;20112;-76
2022/10/27 06:36:10;;;;;;;4.10;1.30;;;;;;;13.47;91.27;100787.75;5034635;28;20768;-77
2022/10/27 06:38:35;;;;;;;3.97;1.20;;;;;;;13.57;90.89;100785.72;5034916;28;20076;-77
2022/10/27 06:41:01;;;;;;;2.53;0.85;;;;;;;13.68;90.17;100778.69;5034785;28;20049;-76
2022/10/27 06:43:26;;;;;;;3.55;1.20;;;;;;;13.82;89.71;100781.91;5035131;28;20087;-76
2022/10/27 06:45:51;;;;;;;3.53;1.10;;;;;;;13.81;89.96;100788.50;5017093;28;20103;-76
2022/10/27 06:48:17;;;;;;;;;;;;;;;13.69;90.59;100786.53;5034928;28;20033;-77
2022/10/27 06:50:42;;;;;;;2.75;0.80;;;;;;;13.73;90.76;100794.88;5034840;28;19996;-77
2022/10/27 06:53:07;;;;;;;;;;;;;;;13.87;90.09;100795.34;5016995;28;20033;-76
2022/10/27 06:55:33;;;;;;;4.40;1.27;;;;;;;14.18;88.47;100791.28;5034603;28;19909;-77
2022/10/27 06:57:58;;;;;;;2.92;0.77;;;;;;;14.30;87.83;100794.03;5034560;28;20026;-76
2022/10/27 07:00:24;;;;;;;;;;;;;;;14.16;88.42;100802.56;5017009;28;20547;-76
2022/10/27 07:02:49;;;;;;;5.70;0.75;;;;;;;14.20;88.55;100800.75;5033983;28;20274;-76
2022/10/27 07:05:15;;;;;;;1.95;0.80;;;;;;;14.47;86.87;100799.28;5034278;28;20127;-76
2022/10/27 07:07:45;;;;;;;3.08;0.95;;;;;;;14.46;86.53;100796.91;5016313;28;20037;-76
2022/10/27 07:10:10;;;;;;;2.33;1.10;;;;;;;14.48;86.44;100800.09;5034092;28;20060;-75
2022/10/27 07:12:36;;;;;;;3.53;1.10;;;;;;;14.51;86.27;100802.13;5016417;28;20064;-76
2022/10/27 07:15:01;;;;;;;3.70;0.95;;;;;;;14.54;86.09;100795.97;5016007;28;20356;-76
2022/10/27 07:17:27;;;;;;;1.30;0.65;;;;;;;14.56;85.68;100790.94;5034022;28;20105;-75
2022/10/27 07:19:52;;;;;;;2.35;0.70;;;;;;;14.67;85.27;100798.34;5034073;28;20445;-76
2022/10/27 07:22:17;;;;;;;;;;;;;;;14.86;83.94;100799.66;5034303;28;20179;-76
2022/10/27 07:24:42;;;;;;;2.35;0.90;;;;;;;14.96;83.43;100788.22;5034015;28;20353;-76
2022/10/27 07:27:08;;;;;;;5.07;0.73;;;;;;;15.06;82.83;100787.72;5015716;28;20029;-76
2022/10/27 07:29:33;;;;;;;;;;;;;;;15.13;82.21;100793.41;5033865;28;20034;-76
2022/10/27 07:31:58;;;;;;;1.85;0.70;;;;;;;15.20;81.96;100788.13;5033701;28;19913;-77
2022/10/27 07:34:24;;;;;;;2.63;1.10;;;;;;;15.28;81.55;100789.09;5033400;28;20022;-76
2022/10/27 07:36:49;;;;;;;2.47;0.80;;;;;;;15.37;81.41;100787.00;5033751;28;20474;-77
2022/10/27 07:39:16;;;;;;;1.73;0.70;;;;;;;15.47;80.87;100785.72;5033640;28;20271;-77
2022/10/27 07:41:41;;;;;;;4.38;1.00;;;;;;;15.68;80.00;100788.25;5033449;28;20069;-76
2022/10/27 07:44:08;;;;;;;2.90;0.83;;;;;;;15.76;79.60;100784.53;5033426;28;20412;-77
2022/10/27 07:46:33;;;;;;;1.88;0.65;;;;;;;15.92;78.59;100786.13;5015789;28;20307;-76
2022/10/27 07:48:59;;;;;;;2.83;0.90;;;;;;;15.99;78.36;100773.75;5015779;28;20052;-76
2022/10/27 07:51:24;;;;;;;;;;;;;;;16.11;78.02;100776.38;5033871;28;20079;-77
2022/10/27 07:53:50;;;;;;;1.63;0.73;;;;;;;16.17;77.83;100763.97;5033496;28;19916;-77
2022/10/27 07:56:19;;;;;;;;;;;;;;;16.25;77.30;100757.47;5033891;28;20268;-76
2022/10/27 07:58:48;;;;;;;2.35;0.55;;;;;;;16.33;77.57;100759.25;5033528;28;19909;-76
2022/10/27 08:01:13;;;;;;;3.92;0.73;;;;;;;16.41;76.91;100769.25;5033515;28;20104;-76
2022/10/27 08:03:39;;;;;;;;;;;;;;;16.50;77.07;100767.09;5015920;28;20141;-76
2022/10/27 08:06:04;;;;;;;2.47;1.10;;;;;;;16.48;77.33;100763.94;5015430;28;19916;-77
2022/10/27 08:08:30;;;;;;;;;;;;;;;16.58;76.49;100772.75;5033512;28;20095;-76
2022/10/27 08:10:55;;;;;;;4.45;1.42;;;;;;;16.58;77.13;100772.75;5015442;28;19909;-77
2022/10/27 08:13:21;;;;;;;;;;;;;;;16.71;76.51;100783.31;5034511;28;20029;-77
2022/10/27 08:15:47;;;;;;;2.57;0.80;;;;;;;16.77;76.26;100778.31;5033071;28;19936;-76
2022/10/27 08:18:13;;;;;;;2.38;0.80;;;;;;;16.65;76.55;100765.47;5033313;28;20104;-77
2022/10/27 08:20:39;;;;;;;;;;;;;;;16.92;75.91;100771.94;5015423;28;20516;-78
2022/10/27 08:23:09;;;;;;;3.50;0.70;;;;;;;17.11;74.71;100768.41;5033384;28;20051;-77
2022/10/27 08:25:34;;;;;;;3.30;0.80;;;;;;;17.25;73.69;100773.38;5032721;28;20026;-76
2022/10/27 08:27:59;;;;;;;;;;;;;;;17.31;74.04;100771.94;5033083;28;20538;-76
2022/10/27 08:30:26;;;;;;;2.15;0.55;;;;;;;17.45;73.64;100763.94;5032782;28;19916;-77
2022/10/27 08:32:57;;;;;;;3.17;0.90;;;;;;;17.51;72.46;100768.00;5032667;28;20045;-75
2022/10/27 08:35:23;;;;;;;2.17;0.60;;;;;;;17.47;73.00;100772.66;5032648;28;20075;-77
2022/10/27 08:37:49;;;;;;;1.58;0.57;;;;;;;17.49;72.69;100778.59;5032651;28;20049;-76
2022/10/27 08:40:14;;;;;;;;;;;;;;;17.64;72.82;100783.19;5032682;28;20071;-77
2022/10/27 08:43:01;;;;;;;3.35;0.60;;;;;;;17.68;72.99;100775.81;5032279;28;19916;-76
2022/10/27 08:45:38;;;;;;;2.33;0.60;;;;;;;17.80;71.71;100776.78;5032710;28;20030;-75
2022/10/27 08:48:10;;;;;;;1.95;0.82;;;;;;;17.89;71.17;100778.13;5032493;28;20047;-75
2022/10/27 08:50:43;;;;;;;1.83;0.70;;;;;;;17.93;70.96;100776.22;5032799;28;20021;-76
2022/10/27 08:53:13;;;;;;;2.45;0.50;;;;;;;17.94;71.63;100782.53;5032792;28;20037;-76
2022/10/27 08:55:51;;;;;;;1.60;0.60;;;;;;;18.01;70.98;100775.19;5032369;28;20379;-77
2022/10/27 08:58:25;;;;;;;1.75;0.63;;;;;;;18.08;70.32;100774.50;5032362;28;20029;-75
2022/10/27 09:00:54;;;;;;;2.22;0.70;;;;;;;18.08;70.41;100770.94;5032119;28;20394;-76
2022/10/27 09:03:47;;;;;;;1.73;0.60;;;;;;;17.98;70.64;100764.13;5032482;28;20029;-76
2022/10/27 09:06:29;;;;;;;1.38;0.50;;;;;;;18.22;68.93;100760.94;5032196;28;20021;-76
2022/10/27 09:09:10;;;;;;;5.35;0.80;;;;;;;18.36;68.59;100765.09;5032306;28;20025;-75
2022/10/27 09:11:53;;;;;;;4.57;0.60;;;;;;;18.35;68.69;100764.28;5032160;28;20025;-75
2022/10/27 09:14:35;;;;;;;2.30;0.85;;;;;;;18.39;69.38;100765.13;5032014;28;20459;-75
2022/10/27 09:17:13;;;;;;;1.88;0.60;;;;;;;18.50;68.03;100763.34;5032289;28;20548;-76
2022/10/27 09:19:49;;;;;;;1.55;0.57;;;;;;;18.67;67.47;100769.50;5032265;28;20157;-75
2022/10/27 09:22:18;;;;;;;1.40;0.50;;;;;;;18.70;67.20;100768.75;5014532;28;20037;-76
2022/10/27 09:24:49;;;;;;;2.13;0.60;;;;;;;18.84;66.51;100764.22;5031971;28;20587;-75
2022/10/27 09:27:15;;;;;;;1.35;0.50;;;;;;;18.90;66.90;100768.22;5032417;28;20033;-75
2022/10/27 09:29:41;;;;;;;6.15;2.03;;;;;;;18.90;65.45;100765.47;5032116;28;20482;-75
2022/10/27 09:32:17;;;;;;;1.05;0.40;;;;;;;18.87;65.65;100757.94;5031869;28;20104;-75
2022/10/27 09:34:47;;;;;;;1.40;0.47;;;;;;;18.99;65.00;100743.13;5032088;28;20025;-76
2022/10/27 09:37:14;;;;;;;1.30;0.45;;;;;;;19.08;64.17;100742.81;5032395;28;20029;-75
2022/10/27 09:39:45;;;;;;;1.55;0.50;;;;;;;19.09;64.87;100741.63;5031804;28;20343;-75
2022/10/27 09:42:10;;;;;;;1.23;0.50;;;;;;;19.08;63.38;100742.81;5031633;28;20049;-76
2022/10/27 09:44:36;;;;;;;1.77;0.60;;;;;;;19.20;63.77;100740.59;5031781;28;20112;-76
2022/10/27 09:47:01;;;;;;;1.05;0.40;;;;;;;19.32;63.08;100745.06;5014269;28;20121;-76
2022/10/27 09:49:33;;;;;;;1.00;0.50;;;;;;;19.40;61.97;100743.94;5031863;28;20437;-77
2022/10/27 09:52:03;;;;;;;1.05;0.50;;;;;;;19.53;61.53;100730.66;5033820;28;20022;-76
2022/10/27 09:54:38;;;;;;;1.83;0.60;;;;;;;19.56;61.73;100742.94;5036120;28;20029;-75
2022/10/27 09:57:05;;;;;;;1.65;0.65;;;;;;;19.63;61.57;100732.75;5035733;28;20029;-75
2022/10/27 09:59:32;;;;;;;3.95;0.85;;;;;;;19.72;61.91;100729.66;5035664;28;20159;-76
2022/10/27 10:01:58;;;;;;;1.33;0.70;;;;;;;19.75;62.11;100729.69;5035858;28;20033;-76
2022/10/27 10:04:35;;;;;;;1.40;0.50;;;;;;;19.69;62.15;100720.19;5035726;28;20029;-74
2022/10/27 10:07:05;;;;;;;1.02;0.47;;;;;;;19.73;62.00;100722.97;5035382;28;20184;-76
2022/10/27 10:09:35;;;;;;;1.50;0.50;;;;;;;19.81;61.17;100710.78;5035905;28;20041;-78
2022/10/27 10:12:20;;;;;;;3.97;0.70;;;;;;;19.86;61.24;100706.91;5017802;28;20489;-77
2022/10/27 10:14:46;;;;;;;2.08;0.60;;;;;;;19.78;61.22;100717.88;5035179;28;20032;-76
2022/10/27 10:17:41;;;;;;;1.88;0.50;;;;;;;19.71;62.06;100700.47;5017666;28;20025;-77
2022/10/27 10:20:24;;;;;;;1.85;0.80;;;;;;;19.83;61.94;100702.94;5013505;28;20060;-77
2022/10/27 10:22:50;;;;;;;2.83;1.15;;;;;;;20.01;61.92;100714.91;5035419;28;20051;-78
2022/10/27 10:25:22;;;;;;;3.53;0.77;;;;;;;20.02;61.72;100697.16;5035229;28;20038;-76
2022/10/27 10:27:56;;;;;;;2.83;0.77;;;;;;;20.03;61.67;100690.44;5035056;28;20021;-76
2022/10/27 10:30:21;;;;;;;3.00;0.93;;;;;;;19.87;61.87;100681.63;5017464;28;20509;-77
2022/10/27 10:32:50;;;;;;;2.35;0.90;;;;;;;19.89;62.92;100684.81;5017656;28;20025;-77
2022/10/27 10:35:39;;;;;;;3.97;0.90;;;;;;;19.81;62.76;100685.91;5035406;28;20394;-78
2022/10/27 10:38:23;;;;;;;1.77;0.77;;;;;;;19.73;63.17;100678.75;5017304;28;20025;-81
2022/10/27 10:41:02;;;;;;;5.13;0.88;;;;;;;19.94;63.07;100692.72;5035244;28;20056;-79
2022/10/27 10:43:28;;;;;;;3.22;0.70;;;;;;;20.03;62.51;100676.63;5035133;28;20094;-81
2022/10/27 10:45:54;;;;;;;4.15;0.90;;;;;;;20.07;62.51;100677.41;5017161;28;20108;-80
2022/10/27 10:48:31;;;;;;;4.45;0.80;;;;;;;20.10;63.44;100662.81;5035257;28;20092;-80
2022/10/27 10:50:58;;;;;;;1.17;0.43;;;;;;;20.32;62.43;100671.22;5017225;28;20029;-82
2022/10/27 10:53:33;;;;;;;2.33;0.88;;;;;;;20.19;63.00;100659.72;5034988;28;20028;-79
2022/10/27 10:56:24;;;;;;;4.28;0.85;;;;;;;20.36;62.40;100661.78;5034491;28;20095;-81
2022/10/27 10:58:55;;;;;;;2.53;0.95;;;;;;;20.22;62.82;100658.16;5034635;28;20120;-81
2022/10/27 11:01:21;;;;;;;6.75;1.65;;;;;;;20.24;62.75;100667.66;5034604;28;20033;-78
2022/10/27 11:03:52;;;;;;;2.47;0.85;;;;;;;20.19;62.74;100653.41;5033876;28;20083;-81
2022/10/27 11:06:19;;;;;;;4.40;0.93;;;;;;;20.20;62.37;100652.22;5017222;28;20025;-79
2022/10/27 11:08:55;;;;;;;1.88;0.73;;;;;;;20.35;62.85;100651.13;5016969;28;20402;-81
2022/10/27 11:11:25;;;;;;;2.38;0.95;;;;;;;20.45;61.94;100653.16;5034268;28;20037;-81
2022/10/27 11:14:01;;;;;;;3.20;0.80;;;;;;;20.62;62.45;100649.66;5034454;28;20064;-81
2022/10/27 11:16:30;;;;;;;2.10;0.70;;;;;;;20.67;61.50;100646.53;5016859;28;20112;-79
2022/10/27 11:19:01;;;;;;;1.90;0.73;;;;;;;20.54;61.98;100650.84;5016596;28;20057;-77
2022/10/27 11:21:33;;;;;;;2.42;0.90;;;;;;;20.57;61.77;100639.00;5016143;28;20116;-77
2022/10/27 11:24:11;;;;;;;3.47;1.00;;;;;;;20.70;60.58;100639.44;5034401;28;20025;-81
2022/10/27 11:26:41;;;;;;;2.28;0.88;;;;;;;20.50;60.97;100635.41;5034675;28;20037;-81
2022/10/27 11:29:32;;;;;;;2.38;0.80;;;;;;;20.44;61.30;100646.03;5016322;28;20549;-81
2022/10/27 11:32:02;;;;;;;3.05;1.02;;;;;;;20.51;61.11;100646.09;5033828;28;20041;-77
2022/10/27 11:34:38;;;;;;;2.78;0.70;;;;;;;20.85;59.96;100631.97;5016020;28;20025;-79
2022/10/27 11:37:13;;;;;;;;;;;;;;;20.83;59.72;100624.06;5034511;28;20017;-81
2022/10/27 11:39:49;;;;;;;2.38;0.70;;;;;;;20.83;59.95;100621.28;5034045;28;19916;-82
2022/10/27 11:42:42;;;;;;;2.55;0.90;;;;;;;20.78;59.74;100618.09;5033772;28;20047;-80
2022/10/27 11:45:19;;;;;;;8.75;2.15;;;;;;;20.71;60.62;100613.34;5034057;28;20120;-79